Time;durP1;ratioP1;P1;durP2;ratioP2;P2;SDS_P1;SDS_P2;PMS_P1;PMS_P2;Temp;Humidity;BMP_temperature;BMP_pressure;BME280_temperature;BME280_humidity;BME280_pressure;Samples;Min_cycle;Max_cycle;Signal;HPM_P1;HPM_P2
2023/05/20 00:00:44;0.00;0.00;0.62;0.00;0.00;0.62;2.73;1.67;;;25.90;18.70;;;;;;2265302;61;20900;-64
2023/05/20 00:03:29;0.00;0.00;0.62;0.00;0.00;0.62;1.83;1.60;;;26.00;18.80;;;;;;2265334;61;20399;-65
2023/05/20 00:06:13;0.00;0.00;0.62;0.00;0.00;0.62;2.53;1.70;;;25.90;18.80;;;;;;2264554;61;20357;-65
2023/05/20 00:08:58;0.00;0.00;0.62;0.00;0.00;0.62;2.00;1.50;;;25.90;18.80;;;;;;2266063;61;20902;-64
2023/05/20 00:11:44;0.00;0.00;0.62;0.00;0.00;0.62;2.87;2.00;;;25.90;18.80;;;;;;2264653;61;20426;-65
2023/05/20 00:14:30;0.00;0.00;0.62;0.00;0.00;0.62;2.50;1.87;;;25.90;18.80;;;;;;2265349;61;20364;-64
2023/05/20 00:17:15;0.00;0.00;0.62;0.00;0.00;0.62;2.37;1.90;;;25.90;18.80;;;;;;2266321;61;20360;-64
2023/05/20 00:20:00;0.00;0.00;0.62;0.00;0.00;0.62;2.70;2.03;;;25.90;18.80;;;;;;2495706;53;20404;-65
2023/05/20 00:22:45;0.00;0.00;0.62;0.00;0.00;0.62;3.10;2.20;;;25.90;18.80;;;;;;2261992;61;20381;-63
2023/05/20 00:25:31;0.00;0.00;0.62;0.00;0.00;0.62;3.30;1.53;;;25.90;18.90;;;;;;2260898;61;20400;-64
2023/05/20 00:28:15;0.00;0.00;0.62;0.00;0.00;0.62;2.93;1.97;;;25.90;18.90;;;;;;2259893;61;20372;-65
2023/05/20 00:31:01;0.00;0.00;0.62;0.00;0.00;0.62;2.23;1.80;;;25.90;18.90;;;;;;2261909;61;20361;-64
2023/05/20 00:33:46;0.00;0.00;0.62;0.00;0.00;0.62;2.47;1.90;;;25.90;18.90;;;;;;2259590;61;20366;-65
2023/05/20 00:36:31;0.00;0.00;0.62;0.00;0.00;0.62;2.47;2.00;;;25.90;18.90;;;;;;2261260;61;20380;-62
2023/05/20 00:39:15;0.00;0.00;0.62;0.00;0.00;0.62;2.20;1.80;;;25.90;18.90;;;;;;2261537;61;20389;-65
2023/05/20 00:42:02;0.00;0.00;0.62;0.00;0.00;0.62;2.40;2.00;;;25.80;18.90;;;;;;2256292;61;20976;-65
2023/05/20 00:44:46;0.00;0.00;0.62;0.00;0.00;0.62;2.20;1.60;;;25.80;18.90;;;;;;2262169;61;20407;-65
2023/05/20 00:47:35;0.00;0.00;0.62;0.00;0.00;0.62;2.70;2.17;;;25.80;18.80;;;;;;2257414;61;20490;-63
2023/05/20 00:50:21;0.00;0.00;0.62;0.00;0.00;0.62;2.07;1.50;;;25.80;18.90;;;;;;2260325;61;20955;-65
2023/05/20 00:53:06;0.00;0.00;0.62;0.00;0.00;0.62;2.07;1.80;;;25.80;18.90;;;;;;2262247;61;20439;-65
2023/05/20 00:55:51;0.00;0.00;0.62;0.00;0.00;0.62;1.93;1.40;;;25.80;18.90;;;;;;2259633;61;20361;-65
2023/05/20 00:58:36;0.00;0.00;0.62;0.00;0.00;0.62;2.73;1.80;;;25.80;18.90;;;;;;2261674;61;20476;-63
2023/05/20 01:01:22;0.00;0.00;0.62;0.00;0.00;0.62;2.40;1.63;;;25.80;18.90;;;;;;2261946;61;20920;-64
2023/05/20 01:04:09;0.00;0.00;0.62;0.00;0.00;0.62;2.10;1.60;;;25.80;18.90;;;;;;2256590;61;20491;-64
2023/05/20 01:06:54;0.00;0.00;0.62;0.00;0.00;0.62;2.40;1.80;;;25.80;18.90;;;;;;2262124;61;20898;-64
2023/05/20 01:09:39;0.00;0.00;0.62;0.00;0.00;0.62;2.77;2.00;;;25.80;18.90;;;;;;2260450;61;20396;-65
2023/05/20 01:12:30;0.00;0.00;0.62;0.00;0.00;0.62;2.50;2.10;;;25.80;18.90;;;;;;2260047;61;20459;-64
2023/05/20 01:15:18;0.00;0.00;0.62;0.00;0.00;0.62;1.90;1.70;;;25.80;18.90;;;;;;2261467;61;20361;-65
2023/05/20 01:18:04;0.00;0.00;0.62;0.00;0.00;0.62;1.90;1.50;;;25.80;18.90;;;;;;2259755;61;20431;-65
2023/05/20 01:20:54;0.00;0.00;0.62;0.00;0.00;0.62;2.30;1.47;;;25.70;18.90;;;;;;2261215;61;20365;-65
2023/05/20 01:23:41;0.00;0.00;0.62;0.00;0.00;0.62;1.90;1.40;;;25.70;18.90;;;;;;2260274;61;20416;-61
2023/05/20 01:26:26;0.00;0.00;0.62;0.00;0.00;0.62;2.73;1.63;;;25.70;18.90;;;;;;2261190;61;20389;-64
2023/05/20 01:29:12;0.00;0.00;0.62;0.00;0.00;0.62;2.53;1.57;;;25.70;18.90;;;;;;2260526;61;20782;-61
2023/05/20 01:31:59;0.00;0.00;0.62;0.00;0.00;0.62;2.40;1.90;;;25.70;18.90;;;;;;2260547;61;20524;-64
2023/05/20 01:34:47;0.00;0.00;0.62;0.00;0.00;0.62;1.87;1.30;;;25.70;18.90;;;;;;2261525;61;20400;-65
2023/05/20 01:37:35;0.00;0.00;0.62;0.00;0.00;0.62;2.10;1.80;;;25.70;18.90;;;;;;2261143;61;20449;-64
2023/05/20 01:40:22;0.00;0.00;0.62;0.00;0.00;0.62;1.90;1.30;;;25.70;18.90;;;;;;2261253;61;20411;-63
2023/05/20 01:43:08;0.00;0.00;0.62;0.00;0.00;0.62;2.10;1.80;;;25.70;18.90;;;;;;2258075;61;20440;-65
2023/05/20 01:45:53;0.00;0.00;0.62;0.00;0.00;0.62;1.60;1.20;;;25.70;18.90;;;;;;2257124;61;20446;-65
2023/05/20 01:48:39;0.00;0.00;0.62;0.00;0.00;0.62;2.17;1.50;;;25.70;18.90;;;;;;2258436;61;20365;-65
2023/05/20 01:51:24;0.00;0.00;0.62;0.00;0.00;0.62;2.97;1.50;;;25.70;18.90;;;;;;2261166;61;20427;-64
2023/05/20 01:54:09;0.00;0.00;0.62;0.00;0.00;0.62;2.90;2.03;;;25.60;18.80;;;;;;2253895;61;20909;-64
2023/05/20 01:56:55;0.00;0.00;0.62;0.00;0.00;0.62;2.53;1.70;;;25.60;18.80;;;;;;2262165;61;20399;-64
2023/05/20 01:59:41;0.00;0.00;0.62;0.00;0.00;0.62;2.30;1.63;;;25.60;18.90;;;;;;2259731;61;20384;-66
2023/05/20 02:02:25;0.00;0.00;0.62;0.00;0.00;0.62;2.20;1.70;;;25.60;18.80;;;;;;2261345;61;20963;-66
2023/05/20 02:05:10;0.00;0.00;0.62;0.00;0.00;0.62;2.30;1.30;;;25.60;18.80;;;;;;2261023;61;20365;-65
2023/05/20 02:07:55;0.00;0.00;0.62;0.00;0.00;0.62;2.00;1.60;;;25.60;18.90;;;;;;2258641;61;20365;-64
2023/05/20 02:10:41;0.00;0.00;0.62;0.00;0.00;0.62;2.20;1.60;;;25.60;18.90;;;;;;2261550;61;20365;-65
2023/05/20 02:13:27;0.00;0.00;0.62;0.00;0.00;0.62;2.00;1.30;;;25.60;18.90;;;;;;2256931;61;20824;-64
2023/05/20 02:16:12;0.00;0.00;0.62;0.00;0.00;0.62;2.00;1.50;;;25.60;18.90;;;;;;2258866;61;20379;-63
2023/05/20 02:18:57;0.00;0.00;0.62;0.00;0.00;0.62;1.93;1.53;;;25.60;18.90;;;;;;2260931;61;20457;-63
2023/05/20 02:21:44;0.00;0.00;0.62;0.00;0.00;0.62;2.10;1.70;;;25.50;18.80;;;;;;2261061;61;20523;-65
2023/05/20 02:24:28;0.00;0.00;0.62;0.00;0.00;0.62;2.20;1.33;;;25.50;18.90;;;;;;2259138;61;20380;-65
2023/05/20 02:27:13;0.00;0.00;0.62;0.00;0.00;0.62;1.93;1.37;;;25.50;18.90;;;;;;2260161;61;20361;-64
2023/05/20 02:29:59;0.00;0.00;0.62;0.00;0.00;0.62;1.97;1.37;;;25.50;18.90;;;;;;2261315;61;20353;-64
2023/05/20 02:32:44;0.00;0.00;0.62;0.00;0.00;0.62;1.57;1.20;;;25.50;18.90;;;;;;2258663;61;20385;-65
2023/05/20 02:35:30;0.00;0.00;0.62;0.00;0.00;0.62;2.33;1.73;;;25.50;18.90;;;;;;2257217;61;20384;-65
2023/05/20 02:38:14;0.00;0.00;0.62;0.00;0.00;0.62;3.87;1.50;;;25.50;18.90;;;;;;2259430;61;20385;-65
2023/05/20 02:41:00;0.00;0.00;0.62;0.00;0.00;0.62;2.00;1.50;;;25.50;18.90;;;;;;2257503;61;20396;-64
2023/05/20 02:43:45;0.00;0.00;0.62;0.00;0.00;0.62;2.03;1.60;;;25.50;18.90;;;;;;2258672;61;20462;-65
2023/05/20 02:46:31;0.00;0.00;0.62;0.00;0.00;0.62;2.00;1.57;;;25.50;18.90;;;;;;2262068;61;20384;-66
2023/05/20 02:49:17;0.00;0.00;0.62;0.00;0.00;0.62;1.90;1.50;;;25.50;18.90;;;;;;2259543;61;20492;-65
2023/05/20 02:52:03;0.00;0.00;0.62;0.00;0.00;0.62;2.13;1.33;;;25.50;19.20;;;;;;2262649;61;20788;-65
2023/05/20 02:54:48;0.00;0.00;0.62;0.00;0.00;0.62;1.90;1.43;;;25.50;18.90;;;;;;2257946;61;20368;-65
2023/05/20 02:57:36;0.00;0.00;0.62;0.00;0.00;0.62;2.07;1.63;;;25.50;18.90;;;;;;2258536;61;20460;-64
2023/05/20 03:00:22;0.00;0.00;0.62;0.00;0.00;0.62;2.10;1.30;;;25.50;18.90;;;;;;2259103;61;20435;-64
2023/05/20 03:03:09;0.00;0.00;0.62;0.00;0.00;0.62;2.30;1.57;;;25.50;19.00;;;;;;2260045;61;20442;-65
2023/05/20 03:05:54;0.00;0.00;0.62;0.00;0.00;0.62;3.50;1.53;;;25.50;19.00;;;;;;2260372;61;20518;-64
2023/05/20 03:08:41;0.00;0.00;0.62;0.00;0.00;0.62;2.43;1.40;;;25.50;19.00;;;;;;2266397;61;20360;-65
2023/05/20 03:11:26;0.00;0.00;0.62;0.00;0.00;0.62;3.10;1.53;;;25.40;18.90;;;;;;2261400;61;20916;-64
2023/05/20 03:14:11;0.00;0.00;0.62;0.00;0.00;0.62;1.90;1.43;;;25.40;18.90;;;;;;2263592;61;20406;-64
2023/05/20 03:16:56;0.00;0.00;0.62;0.00;0.00;0.62;1.90;1.30;;;25.40;18.90;;;;;;2265110;61;20368;-66
2023/05/20 03:19:42;0.00;0.00;0.62;0.00;0.00;0.62;2.00;1.33;;;25.40;18.90;;;;;;2261825;61;20791;-65
2023/05/20 03:22:26;0.00;0.00;0.62;0.00;0.00;0.62;2.00;1.30;;;25.40;18.90;;;;;;2263067;61;20416;-65
2023/05/20 03:25:11;0.00;0.00;0.62;0.00;0.00;0.62;2.20;1.37;;;25.40;18.90;;;;;;2260353;61;20376;-65
2023/05/20 03:27:59;0.00;0.00;0.62;0.00;0.00;0.62;1.73;1.50;;;25.40;18.90;;;;;;2263148;61;20415;-65
2023/05/20 03:30:44;0.00;0.00;0.62;0.00;0.00;0.62;3.00;1.70;;;25.40;18.90;;;;;;2262337;61;20364;-63
2023/05/20 03:33:30;0.00;0.00;0.62;0.00;0.00;0.62;1.90;1.33;;;25.40;18.90;;;;;;2261514;61;20360;-66
2023/05/20 03:36:17;0.00;0.00;0.62;0.00;0.00;0.62;2.30;1.83;;;25.40;19.00;;;;;;2263401;61;20406;-65
2023/05/20 03:39:03;0.00;0.00;0.62;0.00;0.00;0.62;2.10;1.40;;;25.40;19.00;;;;;;2261219;61;20478;-64
2023/05/20 03:41:48;0.00;0.00;0.62;0.00;0.00;0.62;2.13;1.60;;;25.40;19.00;;;;;;2262797;61;20928;-66
2023/05/20 03:44:33;0.00;0.00;0.62;0.00;0.00;0.62;2.90;1.53;;;25.40;19.00;;;;;;2263048;61;20410;-66
2023/05/20 03:47:17;0.00;0.00;0.62;0.00;0.00;0.62;2.83;1.60;;;25.40;19.00;;;;;;2260227;61;20407;-66
2023/05/20 03:50:03;0.00;0.00;0.62;0.00;0.00;0.62;1.97;1.50;;;25.30;19.50;;;;;;2262269;61;20351;-64
2023/05/20 03:52:50;0.00;0.00;0.62;0.00;0.00;0.62;1.90;1.30;;;25.30;19.00;;;;;;2261473;61;20376;-63
2023/05/20 03:55:38;0.00;0.00;0.62;0.00;0.00;0.62;2.57;1.57;;;25.40;19.00;;;;;;2262354;61;20380;-65
2023/05/20 03:58:25;0.00;0.00;0.62;0.00;0.00;0.62;2.10;1.60;;;25.30;19.00;;;;;;2262801;61;20372;-63
2023/05/20 04:01:13;0.00;0.00;0.62;0.00;0.00;0.62;2.30;1.57;;;25.30;19.00;;;;;;2263545;61;20367;-62
2023/05/20 04:03:58;0.00;0.00;0.62;0.00;0.00;0.62;1.83;1.30;;;25.30;19.50;;;;;;2262509;61;20384;-64
2023/05/20 04:06:42;0.00;0.00;0.62;0.00;0.00;0.62;3.80;1.40;;;25.30;19.00;;;;;;2265147;61;20363;-64
2023/05/20 04:09:28;0.00;0.00;0.62;0.00;0.00;0.62;4.53;1.40;;;25.30;19.00;;;;;;2260582;61;20356;-63
2023/05/20 04:12:13;0.00;0.00;0.62;0.00;0.00;0.62;2.33;1.60;;;25.30;19.00;;;;;;2266403;61;20380;-65
2023/05/20 04:15:00;0.00;0.00;0.62;0.00;0.00;0.62;1.70;1.33;;;25.30;19.00;;;;;;2263600;61;20850;-65
2023/05/20 04:17:47;0.00;0.00;0.62;0.00;0.00;0.62;2.13;1.57;;;25.30;19.00;;;;;;2262383;61;20490;-65
2023/05/20 04:20:32;0.00;0.00;0.62;0.00;0.00;0.62;1.87;1.37;;;25.20;19.00;;;;;;2261380;61;20447;-64
2023/05/20 04:23:17;0.00;0.00;0.62;0.00;0.00;0.62;2.87;1.83;;;25.20;19.00;;;;;;2262899;61;20364;-62
2023/05/20 04:26:03;0.00;0.00;0.62;0.00;0.00;0.62;2.80;1.67;;;25.20;19.00;;;;;;2263427;61;20885;-60
2023/05/20 04:28:50;0.00;0.00;0.62;0.00;0.00;0.62;2.07;1.43;;;25.20;19.00;;;;;;2262237;61;20360;-61
2023/05/20 04:31:35;0.00;0.00;0.62;0.00;0.00;0.62;1.90;1.50;;;25.20;19.00;;;;;;2263531;61;20473;-66
2023/05/20 04:34:25;0.00;0.00;0.62;0.00;0.00;0.62;1.90;1.20;;;25.20;19.00;;;;;;2260436;61;20364;-55
2023/05/20 04:37:11;0.00;0.00;0.62;0.00;0.00;0.62;2.33;1.60;;;25.20;19.00;;;;;;2263810;61;20433;-60
2023/05/20 04:39:55;0.00;0.00;0.62;0.00;0.00;0.62;2.20;1.57;;;25.20;19.10;;;;;;2263233;61;20437;-59
2023/05/20 04:42:43;0.00;0.00;0.62;0.00;0.00;0.62;2.37;1.60;;;25.20;19.10;;;;;;2262181;61;20376;-58
2023/05/20 04:45:28;0.00;0.00;0.62;0.00;0.00;0.62;1.97;1.57;;;25.20;19.10;;;;;;2263732;61;20908;-60
2023/05/20 04:48:13;0.00;0.00;0.62;0.00;0.00;0.62;2.20;1.70;;;25.20;19.10;;;;;;2262113;61;20359;-63
2023/05/20 04:50:59;0.00;0.00;0.62;0.00;0.00;0.62;2.03;1.50;;;25.20;19.10;;;;;;2264305;61;20788;-60
2023/05/20 04:53:43;0.00;0.00;0.62;0.00;0.00;0.62;1.90;1.40;;;25.20;19.10;;;;;;2264177;61;20360;-59
2023/05/20 04:56:28;0.00;0.00;0.62;0.00;0.00;0.62;1.87;1.33;;;25.10;19.10;;;;;;2263439;61;20470;-60
2023/05/20 04:59:15;0.00;0.00;0.62;0.00;0.00;0.62;2.50;1.50;;;25.10;19.10;;;;;;2263844;61;20760;-64
2023/05/20 05:02:00;0.00;0.00;0.62;0.00;0.00;0.62;2.10;1.30;;;25.10;19.70;;;;;;2261466;61;20379;-57
2023/05/20 05:04:44;0.00;0.00;0.62;0.00;0.00;0.62;2.33;1.40;;;25.10;19.20;;;;;;2264086;61;20440;-59
2023/05/20 05:07:29;0.00;0.00;0.62;0.00;0.00;0.62;2.20;1.50;;;25.10;19.20;;;;;;2263690;61;20471;-62
2023/05/20 05:10:14;0.00;0.00;0.62;0.00;0.00;0.62;2.13;1.50;;;25.10;19.20;;;;;;2261781;61;20364;-59
2023/05/20 05:12:59;0.00;0.00;0.62;0.00;0.00;0.62;2.00;1.40;;;25.10;19.20;;;;;;2265045;61;20749;-59
2023/05/20 05:15:45;0.00;0.00;0.62;0.00;0.00;0.62;2.30;1.20;;;25.10;19.30;;;;;;2262420;61;20360;-61
2023/05/20 05:18:31;0.00;0.00;0.62;0.00;0.00;0.62;2.67;1.60;;;25.10;19.30;;;;;;2264608;61;20402;-56
2023/05/20 05:21:16;0.00;0.00;0.62;0.00;0.00;0.62;2.73;1.70;;;25.10;19.90;;;;;;2260537;61;20427;-61
2023/05/20 05:24:03;0.00;0.00;0.62;0.00;0.00;0.62;2.40;1.80;;;25.10;19.30;;;;;;2261285;61;20915;-61
2023/05/20 05:26:52;0.00;0.00;0.62;0.00;0.00;0.62;2.20;1.67;;;25.10;19.40;;;;;;2261518;61;20774;-58
2023/05/20 05:29:37;0.00;0.00;0.62;0.00;0.00;0.62;2.40;1.73;;;25.10;19.40;;;;;;2262848;61;20877;-63
2023/05/20 05:32:23;0.00;0.00;0.62;0.00;0.00;0.62;2.37;1.80;;;25.10;19.50;;;;;;2262781;61;20793;-61
2023/05/20 05:35:09;0.00;0.00;0.62;0.00;0.00;0.62;5.10;1.80;;;25.10;19.40;;;;;;2264183;61;20408;-58
2023/05/20 05:37:53;0.00;0.00;0.62;0.00;0.00;0.62;2.27;1.60;;;25.10;19.50;;;;;;2261930;61;20359;-64
2023/05/20 05:40:39;0.00;0.00;0.62;0.00;0.00;0.62;2.10;1.60;;;25.10;19.50;;;;;;2263978;61;20367;-59
2023/05/20 05:43:24;0.00;0.00;0.62;0.00;0.00;0.62;2.80;1.70;;;25.10;19.50;;;;;;2261871;61;20384;-65
2023/05/20 05:46:11;0.00;0.00;0.62;0.00;0.00;0.62;2.10;1.70;;;25.10;19.50;;;;;;2259776;61;20394;-59
2023/05/20 05:48:57;0.00;0.00;0.62;0.00;0.00;0.62;2.17;1.70;;;25.10;19.60;;;;;;2260871;61;20443;-62
2023/05/20 05:51:42;0.00;0.00;0.62;0.00;0.00;0.62;2.23;1.50;;;25.00;19.50;;;;;;2258448;61;20428;-63
2023/05/20 05:54:28;0.00;0.00;0.62;0.00;0.00;0.62;2.37;1.70;;;25.00;19.60;;;;;;2259740;61;20376;-52
2023/05/20 05:57:13;0.00;0.00;0.62;0.00;0.00;0.62;2.40;1.80;;;25.00;19.60;;;;;;2257233;61;20900;-57
2023/05/20 05:59:58;0.00;0.00;0.62;0.00;0.00;0.62;2.13;1.63;;;25.00;19.60;;;;;;2254636;61;20384;-57
2023/05/20 06:02:45;0.00;0.00;0.62;0.00;0.00;0.62;3.30;2.07;;;25.00;19.70;;;;;;2257067;61;20388;-54
2023/05/20 06:05:35;0.00;0.00;0.62;0.00;0.00;0.62;2.73;1.97;;;25.00;19.70;;;;;;2254906;61;20365;-61
2023/05/20 06:08:20;0.00;0.00;0.62;0.00;0.00;0.62;2.10;1.70;;;25.00;19.70;;;;;;2259884;61;20453;-58
2023/05/20 06:11:06;0.00;0.00;0.62;0.00;0.00;0.62;3.93;1.70;;;25.00;19.80;;;;;;2256175;61;20364;-65
2023/05/20 06:13:50;0.00;0.00;0.62;0.00;0.00;0.62;2.50;1.70;;;25.00;19.80;;;;;;2255540;61;20825;-59
2023/05/20 06:16:35;0.00;0.00;0.62;0.00;0.00;0.62;3.07;1.73;;;25.00;19.80;;;;;;2256755;61;20357;-57
2023/05/20 06:19:20;0.00;0.00;0.62;0.00;0.00;0.62;2.47;1.60;;;25.00;19.90;;;;;;2258636;61;20933;-59
2023/05/20 06:22:07;0.00;0.00;0.62;0.00;0.00;0.62;2.70;1.80;;;25.00;19.90;;;;;;2253702;61;20388;-64
2023/05/20 06:24:55;0.00;0.00;0.62;0.00;0.00;0.62;2.40;1.60;;;25.00;19.90;;;;;;2256883;61;20453;-63
2023/05/20 06:27:40;0.00;0.00;0.62;0.00;0.00;0.62;2.43;2.00;;;25.00;20.20;;;;;;2255078;61;20449;-59
2023/05/20 06:30:27;0.00;0.00;0.62;0.00;0.00;0.62;2.00;1.70;;;25.00;20.00;;;;;;2256139;61;20357;-61
2023/05/20 06:33:12;0.00;0.00;0.62;0.00;0.00;0.62;2.20;1.60;;;25.00;20.00;;;;;;2259082;61;20384;-60
2023/05/20 06:35:58;0.00;0.00;0.62;0.00;0.00;0.62;2.53;1.60;;;25.00;20.00;;;;;;2255750;61;20952;-61
2023/05/20 06:38:44;0.00;0.00;0.62;0.00;0.00;0.62;2.07;1.60;;;25.00;20.00;;;;;;2256185;61;20960;-60
2023/05/20 06:41:32;0.00;0.00;0.62;0.00;0.00;0.62;2.30;1.50;;;25.00;20.10;;;;;;2252309;61;20385;-62
2023/05/20 06:44:17;0.00;0.00;0.62;0.00;0.00;0.62;2.90;1.90;;;25.00;20.10;;;;;;2256384;61;20444;-61
2023/05/20 06:47:17;0.00;0.00;0.62;0.00;0.00;0.62;3.30;2.10;;;24.90;20.10;;;;;;2255662;61;20377;-57
2023/05/20 06:50:05;0.00;0.00;0.62;0.00;0.00;0.62;2.20;1.70;;;24.90;20.10;;;;;;2255851;61;20424;-56
2023/05/20 06:52:50;0.00;0.00;0.62;0.00;0.00;0.62;2.97;1.90;;;24.90;20.20;;;;;;2259607;61;20380;-55
2023/05/20 06:55:37;0.00;0.00;0.62;0.00;0.00;0.62;2.60;2.00;;;24.90;20.20;;;;;;2254893;61;20373;-59
2023/05/20 06:58:21;0.00;0.00;0.62;0.00;0.00;0.62;2.40;1.70;;;24.90;20.20;;;;;;2259405;61;20939;-58
2023/05/20 07:01:07;0.00;0.00;0.62;0.00;0.00;0.62;2.40;1.60;;;24.90;20.30;;;;;;2255202;61;20771;-56
2023/05/20 07:03:52;0.00;0.00;0.62;0.00;0.00;0.62;2.77;2.00;;;24.90;20.30;;;;;;2257106;61;20869;-58
2023/05/20 07:06:37;0.00;0.00;0.62;0.00;0.00;0.62;2.20;1.87;;;24.90;20.40;;;;;;2259210;61;20777;-61
2023/05/20 07:09:21;0.00;0.00;0.62;0.00;0.00;0.62;2.90;1.40;;;24.90;20.40;;;;;;2257677;61;20362;-61
2023/05/20 07:12:08;0.00;0.00;0.62;0.00;0.00;0.62;2.60;1.93;;;24.90;20.40;;;;;;2257419;61;20385;-65
2023/05/20 07:14:53;0.00;0.00;0.62;0.00;0.00;0.62;2.27;1.77;;;24.90;20.40;;;;;;2255943;61;20912;-59
2023/05/20 07:17:39;0.00;0.00;0.62;0.00;0.00;0.62;2.33;1.77;;;24.90;20.40;;;;;;2257494;61;20431;-60
2023/05/20 07:20:24;0.00;0.00;0.62;0.00;0.00;0.62;3.03;1.80;;;24.90;20.40;;;;;;2256473;61;20508;-64
2023/05/20 07:23:09;0.00;0.00;0.62;0.00;0.00;0.62;2.43;1.93;;;24.90;20.40;;;;;;2291463;41;20404;-60
2023/05/20 07:26:00;0.00;0.00;0.62;0.00;0.00;0.62;3.50;2.53;;;24.90;20.40;;;;;;2260931;61;20383;-56
2023/05/20 07:28:46;0.00;0.00;0.62;0.00;0.00;0.62;2.50;2.10;;;24.90;20.40;;;;;;2255838;61;21101;-62
2023/05/20 07:31:31;0.00;0.00;0.62;0.00;0.00;0.62;2.83;1.90;;;24.90;20.40;;;;;;2257211;61;20536;-56
2023/05/20 07:34:17;0.00;0.00;0.62;0.00;0.00;0.62;2.77;1.90;;;24.90;20.50;;;;;;2260433;61;20365;-57
2023/05/20 07:37:02;0.00;0.00;0.62;0.00;0.00;0.62;2.37;1.70;;;24.90;20.50;;;;;;2255085;61;20365;-55
2023/05/20 07:39:47;0.00;0.00;0.62;0.00;0.00;0.62;2.43;1.60;;;24.90;20.50;;;;;;2257513;61;20804;-55
2023/05/20 07:42:32;0.00;0.00;0.62;0.00;0.00;0.62;2.63;1.53;;;24.90;20.50;;;;;;2259189;61;20432;-54
2023/05/20 07:45:20;0.00;0.00;0.62;0.00;0.00;0.62;2.50;2.00;;;25.00;20.60;;;;;;2257050;61;20877;-57
2023/05/20 07:48:07;0.00;0.00;0.62;0.00;0.00;0.62;2.70;2.10;;;24.90;20.50;;;;;;2257884;61;20369;-60
2023/05/20 07:50:52;0.00;0.00;0.62;0.00;0.00;0.62;2.20;1.70;;;24.90;20.50;;;;;;2254747;61;20361;-60
2023/05/20 07:53:38;0.00;0.00;0.62;0.00;0.00;0.62;4.13;1.90;;;24.90;20.50;;;;;;2257293;61;20495;-58
2023/05/20 07:56:23;0.00;0.00;0.62;0.00;0.00;0.62;3.40;2.40;;;24.90;20.60;;;;;;2256859;61;20357;-55
2023/05/20 07:59:08;0.00;0.00;0.62;0.00;0.00;0.62;2.73;2.03;;;24.90;20.60;;;;;;2256309;61;20387;-54
2023/05/20 08:02:00;0.00;0.00;0.62;0.00;0.00;0.62;2.60;1.70;;;24.90;20.60;;;;;;2257518;61;20381;-61
2023/05/20 08:04:45;0.00;0.00;0.62;0.00;0.00;0.62;2.80;2.00;;;24.90;20.60;;;;;;2255330;61;20446;-55
2023/05/20 08:07:31;0.00;0.00;0.62;0.00;0.00;0.62;2.13;1.70;;;25.00;20.70;;;;;;2259863;61;20408;-59
2023/05/20 08:10:17;0.00;0.00;0.62;0.00;0.00;0.62;3.00;1.90;;;24.90;20.70;;;;;;2255593;61;20869;-60
2023/05/20 08:13:03;0.00;0.00;0.62;0.00;0.00;0.62;2.87;1.80;;;25.00;20.80;;;;;;2256935;61;20427;-60
2023/05/20 08:15:52;0.00;0.00;0.62;0.00;0.00;0.62;2.57;2.00;;;25.00;20.80;;;;;;2257589;61;20361;-59
2023/05/20 08:18:38;0.00;0.00;0.62;0.00;0.00;0.62;3.23;2.10;;;25.00;20.80;;;;;;2255607;61;20400;-56
2023/05/20 08:21:23;0.00;0.00;0.62;0.00;0.00;0.62;3.10;1.93;;;24.90;20.70;;;;;;2255290;61;21046;-54
2023/05/20 08:24:09;0.00;0.00;0.62;0.00;0.00;0.62;2.53;1.87;;;25.00;20.80;;;;;;2255098;61;20377;-64
2023/05/20 08:26:54;0.00;0.00;0.62;0.00;0.00;0.62;2.10;1.57;;;25.00;20.80;;;;;;2255291;61;20566;-57
2023/05/20 08:29:44;0.00;0.00;0.62;0.00;0.00;0.62;2.40;1.77;;;25.00;20.80;;;;;;2255239;61;20377;-58
2023/05/20 08:32:29;0.00;0.00;0.62;0.00;0.00;0.62;2.50;2.10;;;25.00;20.80;;;;;;2254161;61;20433;-58
2023/05/20 08:35:15;0.00;0.00;0.62;0.00;0.00;0.62;2.40;2.07;;;25.00;20.80;;;;;;2256277;61;20378;-57
2023/05/20 08:38:01;0.00;0.00;0.62;0.00;0.00;0.62;1.97;1.77;;;25.00;20.80;;;;;;2254951;61;20362;-55
2023/05/20 08:40:52;0.00;0.00;0.62;0.00;0.00;0.62;2.97;2.00;;;25.00;20.80;;;;;;2255117;61;20365;-53
2023/05/20 08:43:36;0.00;0.00;0.62;0.00;0.00;0.62;2.00;1.70;;;25.00;20.80;;;;;;2255475;61;20370;-60
2023/05/20 08:46:22;0.00;0.00;0.62;0.00;0.00;0.62;2.20;1.70;;;25.00;20.90;;;;;;2254024;61;20859;-55
2023/05/20 08:49:07;0.00;0.00;0.62;0.00;0.00;0.62;2.27;1.70;;;25.00;20.90;;;;;;2255723;61;20766;-55
2023/05/20 08:51:53;0.00;0.00;0.62;0.00;0.00;0.62;1.87;1.47;;;25.00;20.90;;;;;;2255956;61;20775;-58
2023/05/20 08:54:47;0.00;0.00;0.62;0.00;0.00;0.62;1.97;1.70;;;25.00;20.90;;;;;;2255639;61;20384;-56
2023/05/20 08:57:32;0.00;0.00;0.62;0.00;0.00;0.62;2.93;1.90;;;25.00;20.90;;;;;;2255945;61;20357;-58
2023/05/20 09:00:19;0.00;0.00;0.62;0.00;0.00;0.62;2.57;1.73;;;25.00;21.00;;;;;;2253811;61;20394;-59
2023/05/20 09:03:04;0.00;0.00;0.62;0.00;0.00;0.62;3.40;1.63;;;25.00;21.00;;;;;;2256514;61;20798;-62
2023/05/20 09:05:49;0.00;0.00;0.62;0.00;0.00;0.62;2.93;1.70;;;25.00;21.00;;;;;;2256120;61;20778;-56
2023/05/20 09:08:36;0.00;0.00;0.62;0.00;0.00;0.62;2.27;1.60;;;25.00;21.00;;;;;;2255196;61;20847;-60
2023/05/20 09:11:21;0.00;0.00;0.62;0.00;0.00;0.62;2.50;1.63;;;25.00;21.10;;;;;;2256435;61;20362;-57
2023/05/20 09:14:07;0.00;0.00;0.62;0.00;0.00;0.62;2.37;1.60;;;25.00;21.10;;;;;;2254310;61;20450;-60
2023/05/20 09:16:52;0.00;0.00;0.62;0.00;0.00;0.62;3.20;1.97;;;25.00;21.10;;;;;;2255997;61;20941;-58
2023/05/20 09:19:37;0.00;0.00;0.62;0.00;0.00;0.62;2.13;1.60;;;25.00;21.10;;;;;;2255671;61;20440;-64
2023/05/20 09:22:22;0.00;0.00;0.62;0.00;0.00;0.62;1.83;1.33;;;25.00;21.00;;;;;;2254152;61;20448;-58
2023/05/20 09:25:12;0.00;0.00;0.62;0.00;0.00;0.62;2.40;2.00;;;25.00;21.10;;;;;;2256513;61;20468;-59
2023/05/20 09:27:56;0.00;0.00;0.62;0.00;0.00;0.62;3.23;2.00;;;25.00;21.10;;;;;;2254945;61;20389;-58
2023/05/20 09:30:41;0.00;0.00;0.62;0.00;0.00;0.62;2.80;1.83;;;25.00;21.10;;;;;;2255474;61;20350;-57
2023/05/20 09:33:28;0.00;0.00;0.62;0.00;0.00;0.62;2.57;1.60;;;25.00;21.20;;;;;;2255857;61;20384;-60
2023/05/20 09:36:14;0.00;0.00;0.62;0.00;0.00;0.62;2.57;2.20;;;25.00;21.20;;;;;;2253967;61;20413;-60
2023/05/20 09:39:02;0.00;0.00;0.62;0.00;0.00;0.62;2.63;1.77;;;25.00;21.20;;;;;;2256364;61;20393;-55
2023/05/20 09:42:11;0.00;0.00;0.62;0.00;0.00;0.62;3.03;1.83;;;25.00;21.20;;;;;;2253848;61;20521;-55
2023/05/20 09:44:57;0.00;0.00;0.62;0.00;0.00;0.62;3.00;1.90;;;25.00;21.30;;;;;;2256491;61;20380;-56
2023/05/20 09:47:44;0.00;0.00;0.62;0.00;0.00;0.62;2.10;1.70;;;25.10;21.30;;;;;;2255970;61;20828;-61
2023/05/20 09:50:30;0.00;0.00;0.62;0.00;0.00;0.62;2.47;2.00;;;25.00;21.20;;;;;;2254581;61;20877;-59
2023/05/20 09:53:16;0.00;0.00;0.62;0.00;0.00;0.62;3.30;1.87;;;25.00;21.30;;;;;;2256327;61;20385;-58
2023/05/20 09:56:02;0.00;0.00;0.62;0.00;0.00;0.62;3.93;1.97;;;25.10;21.30;;;;;;2253954;61;20370;-58
2023/05/20 09:58:49;0.00;0.00;0.62;0.00;0.00;0.62;2.27;1.67;;;25.10;21.30;;;;;;2255746;61;20448;-58
2023/05/20 10:01:34;0.00;0.00;0.62;0.00;0.00;0.62;2.20;1.50;;;25.10;21.30;;;;;;2256432;61;20490;-54
2023/05/20 10:04:22;0.00;0.00;0.62;0.00;0.00;0.62;2.83;1.80;;;25.10;21.30;;;;;;2254748;61;20361;-60
2023/05/20 10:07:38;0.00;0.00;0.62;0.00;0.00;0.62;2.23;1.67;;;25.10;21.30;;;;;;2255864;61;20781;-60
2023/05/20 10:10:39;0.00;0.00;0.62;0.00;0.00;0.62;2.00;1.60;;;25.10;21.40;;;;;;2253583;61;20397;-58
2023/05/20 10:13:52;0.00;0.00;0.62;0.00;0.00;0.62;3.00;1.67;;;25.10;21.40;;;;;;2255940;61;20777;-57
2023/05/20 10:16:49;0.00;0.00;0.62;0.00;0.00;0.62;3.30;1.87;;;25.10;21.40;;;;;;2255341;61;20424;-59
2023/05/20 10:19:35;0.00;0.00;0.62;0.00;0.00;0.62;2.17;1.90;;;25.10;21.40;;;;;;2254972;61;20865;-59
2023/05/20 10:22:27;0.00;0.00;0.62;0.00;0.00;0.62;2.67;2.00;;;25.10;21.50;;;;;;2256011;61;20382;-62
2023/05/20 10:25:26;0.00;0.00;0.62;0.00;0.00;0.62;2.40;1.93;;;25.10;21.50;;;;;;2255245;61;20393;-61
2023/05/20 10:28:11;0.00;0.00;0.62;0.00;0.00;0.62;2.53;1.90;;;25.10;22.00;;;;;;2255808;61;20476;-64
2023/05/20 10:30:56;0.00;0.00;0.62;0.00;0.00;0.62;2.67;2.00;;;25.10;21.40;;;;;;2254157;61;20358;-63
2023/05/20 10:33:43;0.00;0.00;0.62;0.00;0.00;0.62;2.20;1.80;;;25.10;21.40;;;;;;2255939;61;20450;-61
2023/05/20 10:36:30;0.00;0.00;0.62;0.00;0.00;0.62;3.00;2.20;;;25.10;21.50;;;;;;2255184;61;20454;-66
2023/05/20 10:39:16;0.00;0.00;0.62;0.00;0.00;0.62;2.00;1.70;;;25.10;22.10;;;;;;2255151;61;20378;-60
2023/05/20 10:42:07;0.00;0.00;0.62;0.00;0.00;0.62;2.33;1.70;;;25.10;21.50;;;;;;2256154;61;20386;-61
2023/05/20 10:44:52;0.00;0.00;0.62;0.00;0.00;0.62;2.90;1.87;;;25.10;21.50;;;;;;2254610;61;20934;-61
2023/05/20 10:47:52;0.00;0.00;0.62;0.00;0.00;0.62;1.93;1.53;;;25.10;21.60;;;;;;2256854;61;20357;-61
2023/05/20 10:50:40;0.00;0.00;0.62;0.00;0.00;0.62;2.77;1.80;;;25.10;21.60;;;;;;2256205;61;20401;-61
2023/05/20 10:53:26;0.00;0.00;0.62;0.00;0.00;0.62;2.33;1.67;;;25.10;21.50;;;;;;2255571;61;20394;-61
2023/05/20 10:56:17;0.00;0.00;0.62;0.00;0.00;0.62;2.57;1.93;;;25.10;21.60;;;;;;2256688;61;20405;-65